PWSweather.com
Personal Weather Stations
Station Observations
KWABLAIN13
Ptl Weather, Blaine, WA

Ptl WeatherBlaine, WA

Lat: 48.997393, Lon: -122.748614

Elevation: 57

Station Type: Davis Advantage Pro 2

http://www.ptlnet.net

Latest ConditionsUpdated 4:10:06 AM PDT Monday, Apr 24, 2017
Currently Today's Max Today's Min Today's Average
Temperature 45.8°F7.7°C 46.8°F8.2°C 45.8°F7.7°C 46.2°F7.9°C
Dew Point 44.7°F7.1°C 45.5°F7.5°C 44.7°F7.1°C 45.1°F7.3°C
Winds Calm Calm 5.0 mph SE8.0 kmh SE - 1.8 mph 2.9 kmh
Wind Gusts 5.0 mph8.0 kmh 11.0 mph17.7 kmh - -
Humidity 96% 96% 95% 96%
Pressure 29.74 in1007.1 mb 29.77 in1008.1 mb 29.74 in1007.1 mb -
Hour Temp Dew Point Humidity Winds Wind Gusts Pressure Precip Precip Rate Daily Precip Total
04:10 AM 45.8°F7.7°C 44.7°F7.1°C 96% Calm Calm 5.0 mph8.0 kmh 29.74 in1007.1 mb 0.09 in2.3 mm 0.00 in0.0 mm 0.20 in5.1 mm
04:05 AM 45.8°F7.7°C 44.7°F7.1°C 96% Calm Calm 3.0 mph4.8 kmh 29.74 in1007.1 mb 0.09 in2.3 mm 0.00 in0.0 mm 0.20 in5.1 mm
03:50 AM 45.9°F7.7°C 44.8°F7.1°C 96% Calm Calm 2.0 mph3.2 kmh 29.74 in1007.1 mb 0.09 in2.3 mm 0.12 in3.0 mm 0.20 in5.1 mm
03:45 AM 45.9°F7.7°C 44.8°F7.1°C 96% Calm Calm 2.0 mph3.2 kmh 29.74 in1007.1 mb 0.08 in2.0 mm 0.00 in0.0 mm 0.19 in4.8 mm
03:30 AM 45.9°F7.7°C 44.8°F7.1°C 96% Calm Calm 1.0 mph1.6 kmh 29.75 in1007.5 mb 0.09 in2.3 mm 0.10 in2.5 mm 0.19 in4.8 mm
03:24 AM 45.9°F7.7°C 44.8°F7.1°C 96% Calm Calm 1.0 mph1.6 kmh 29.75 in1007.5 mb 0.08 in2.0 mm 0.09 in2.3 mm 0.18 in4.6 mm
03:10 AM 46.0°F7.8°C 44.9°F7.2°C 96% 5.0 mph E8.0 kmh E 5.0 mph8.0 kmh 29.75 in1007.5 mb 0.06 in1.5 mm 0.12 in3.0 mm 0.16 in4.1 mm
03:05 AM 46.0°F7.8°C 44.9°F7.2°C 96% 2.0 mph SE3.2 kmh SE 5.0 mph8.0 kmh 29.75 in1007.5 mb 0.05 in1.3 mm 0.00 in0.0 mm 0.15 in3.8 mm
02:50 AM 46.2°F7.9°C 45.1°F7.3°C 96% 3.0 mph ESE4.8 kmh ESE 5.0 mph8.0 kmh 29.75 in1007.5 mb 0.06 in1.5 mm 0.12 in3.0 mm 0.15 in3.8 mm
02:45 AM 46.2°F7.9°C 45.1°F7.3°C 96% Calm Calm 4.0 mph6.4 kmh 29.75 in1007.5 mb 0.05 in1.3 mm 0.00 in0.0 mm 0.14 in3.6 mm
02:29 AM 46.2°F7.9°C 45.1°F7.3°C 96% 2.0 mph SE3.2 kmh SE 6.0 mph9.7 kmh 29.75 in1007.5 mb 0.05 in1.3 mm 0.00 in0.0 mm 0.14 in3.6 mm
02:24 AM 46.2°F7.9°C 45.1°F7.3°C 96% 2.0 mph SE3.2 kmh SE 4.0 mph6.4 kmh 29.75 in1007.5 mb 0.05 in1.3 mm 0.00 in0.0 mm 0.14 in3.6 mm
02:10 AM 46.2°F7.9°C 45.1°F7.3°C 96% Calm Calm -- 29.75 in1007.5 mb 0.06 in1.5 mm 0.00 in0.0 mm 0.14 in3.6 mm
02:04 AM 46.2°F7.9°C 45.1°F7.3°C 96% Calm Calm 2.0 mph3.2 kmh 29.76 in1007.8 mb 0.08 in2.0 mm 0.00 in0.0 mm 0.14 in3.6 mm
01:50 AM 46.3°F7.9°C 45.2°F7.3°C 96% 1.0 mph SE1.6 kmh SE 4.0 mph6.4 kmh 29.76 in1007.8 mb 0.12 in3.0 mm 0.12 in3.0 mm 0.14 in3.6 mm
01:45 AM 46.3°F7.9°C 45.2°F7.3°C 96% 3.0 mph SE4.8 kmh SE 4.0 mph6.4 kmh 29.76 in1007.8 mb 0.11 in2.8 mm 0.00 in0.0 mm 0.13 in3.3 mm
01:30 AM 46.3°F7.9°C 45.2°F7.3°C 96% 2.0 mph SE3.2 kmh SE 5.0 mph8.0 kmh 29.76 in1007.8 mb 0.12 in3.0 mm 0.00 in0.0 mm 0.13 in3.3 mm
01:25 AM 46.2°F7.9°C 45.1°F7.3°C 96% 1.0 mph SE1.6 kmh SE 5.0 mph8.0 kmh 29.76 in1007.8 mb 0.12 in3.0 mm 0.00 in0.0 mm 0.13 in3.3 mm
01:10 AM 46.3°F7.9°C 45.0°F7.2°C 95% 2.0 mph SE3.2 kmh SE 6.0 mph9.7 kmh 29.77 in1008.1 mb 0.12 in3.0 mm 0.12 in3.0 mm 0.13 in3.3 mm
01:05 AM 46.3°F7.9°C 45.0°F7.2°C 95% 2.0 mph SE3.2 kmh SE 5.0 mph8.0 kmh 29.77 in1008.1 mb 0.11 in2.8 mm 0.04 in1.0 mm 0.12 in3.0 mm
12:50 AM 46.4°F8.0°C 45.1°F7.3°C 95% 2.0 mph SSE3.2 kmh SSE 7.0 mph11.3 kmh 29.77 in1008.1 mb 0.08 in2.0 mm 0.24 in6.1 mm 0.09 in2.3 mm
12:45 AM 46.4°F8.0°C 45.1°F7.3°C 95% 3.0 mph SE4.8 kmh SE 7.0 mph11.3 kmh 29.77 in1008.1 mb 0.06 in1.5 mm 0.08 in2.0 mm 0.07 in1.8 mm
12:30 AM 46.5°F8.1°C 45.2°F7.3°C 95% 5.0 mph SE8.0 kmh SE 11.0 mph17.7 kmh 29.77 in1008.1 mb 0.04 in1.0 mm 0.12 in3.0 mm 0.05 in1.3 mm
12:25 AM 46.6°F8.1°C 45.3°F7.4°C 95% 4.0 mph SE6.4 kmh SE 11.0 mph17.7 kmh 29.77 in1008.1 mb 0.03 in0.8 mm 0.00 in0.0 mm 0.04 in1.0 mm
12:10 AM 46.7°F8.2°C 45.4°F7.4°C 95% 3.0 mph SE4.8 kmh SE 10.0 mph16.1 kmh 29.77 in1008.1 mb 0.04 in1.0 mm 0.00 in0.0 mm 0.04 in1.0 mm
12:04 AM 46.8°F8.2°C 45.5°F7.5°C 95% 4.0 mph SE6.4 kmh SE 10.0 mph16.1 kmh 29.77 in1008.1 mb 0.04 in1.0 mm 0.60 in15.2 mm 0.04 in1.0 mm